createdAt,value
2019-02-23T00:02:23.127Z,4.50
2019-02-23T00:04:51.564Z,4.53
2019-02-23T00:07:19.983Z,4.10
2019-02-23T00:09:48.396Z,4.10
2019-02-23T00:12:16.815Z,4.25
2019-02-23T00:14:45.346Z,4.28
2019-02-23T00:17:13.786Z,4.72
2019-02-23T00:19:42.184Z,4.25
2019-02-23T00:22:10.615Z,4.45
2019-02-23T00:24:39.114Z,4.42
2019-02-23T00:27:07.527Z,4.17
2019-02-23T00:29:35.950Z,5.05
2019-02-23T00:32:04.345Z,4.03
2019-02-23T00:34:32.770Z,4.58
2019-02-23T00:37:01.207Z,4.20
2019-02-23T00:39:29.615Z,4.12
2019-02-23T00:41:58.097Z,4.30
2019-02-23T00:44:26.494Z,4.53
2019-02-23T00:46:54.917Z,3.92
2019-02-23T00:49:23.337Z,4.03
2019-02-23T00:51:52.013Z,4.00
2019-02-23T00:54:20.515Z,4.22
2019-02-23T00:56:48.927Z,4.12
2019-02-23T00:59:17.346Z,4.25
2019-02-23T01:01:45.736Z,4.20
2019-02-23T01:04:14.161Z,4.25
2019-02-23T01:06:42.585Z,4.42
2019-02-23T01:09:11.001Z,4.03
2019-02-23T01:11:39.426Z,4.58
2019-02-23T01:14:07.841Z,4.22
2019-02-23T01:16:36.261Z,4.20
2019-02-23T01:19:04.668Z,4.30
2019-02-23T01:21:33.097Z,3.65
2019-02-23T01:24:01.483Z,3.35
2019-02-23T01:26:29.903Z,3.87
2019-02-23T01:28:58.307Z,3.37
2019-02-23T01:31:26.725Z,3.62
2019-02-23T01:33:55.123Z,3.83
2019-02-23T01:36:23.545Z,3.70
2019-02-23T01:38:52.010Z,4.10
2019-02-23T01:41:20.406Z,4.40
2019-02-23T01:43:48.911Z,4.30
2019-02-23T01:46:17.302Z,4.15
2019-02-23T01:48:45.730Z,3.75
2019-02-23T01:51:14.139Z,3.55
2019-02-23T01:53:42.633Z,4.33
2019-02-23T01:56:11.045Z,3.90
2019-02-23T01:58:39.466Z,3.72
2019-02-23T02:01:08.115Z,4.00
2019-02-23T02:03:36.729Z,4.15
2019-02-23T02:06:05.185Z,3.75
2019-02-23T02:08:34.187Z,4.08
2019-02-23T02:11:02.580Z,3.27
2019-02-23T02:13:30.963Z,3.85
2019-02-23T02:15:59.433Z,3.72
2019-02-23T02:18:27.839Z,4.28
2019-02-23T02:20:56.267Z,3.92
2019-02-23T02:23:24.715Z,3.70
2019-02-23T02:25:53.123Z,3.47
2019-02-23T02:28:21.555Z,3.95
2019-02-23T02:30:49.987Z,3.77
2019-02-23T02:33:18.398Z,3.58
2019-02-23T02:35:46.822Z,3.35
2019-02-23T02:38:15.233Z,3.72
2019-02-23T02:40:43.662Z,3.70
2019-02-23T02:43:12.160Z,3.60
2019-02-23T02:45:40.585Z,3.92
2019-02-23T02:48:09.004Z,3.35
2019-02-23T02:50:37.401Z,3.80
2019-02-23T02:53:05.817Z,3.83
2019-02-23T02:55:34.331Z,3.72
2019-02-23T02:58:02.722Z,3.90
2019-02-23T03:00:31.133Z,3.58
2019-02-23T03:02:59.538Z,3.33
2019-02-23T03:05:27.983Z,3.98
2019-02-23T03:07:56.381Z,3.70
2019-02-23T03:10:24.883Z,4.10
2019-02-23T03:12:53.288Z,3.90
2019-02-23T03:15:21.693Z,3.62
2019-02-23T03:17:50.112Z,3.35
2019-02-23T03:20:18.543Z,3.52
2019-02-23T03:22:46.967Z,3.70
2019-02-23T03:25:15.364Z,3.85
2019-02-23T03:27:44.734Z,3.58
2019-02-23T03:30:13.217Z,3.50
2019-02-23T03:32:41.619Z,3.70
2019-02-23T03:35:10.122Z,3.60
2019-02-23T03:37:38.551Z,3.80
2019-02-23T03:40:08.614Z,4.08
2019-02-23T03:42:37.042Z,3.85
2019-02-23T03:45:06.076Z,3.55
2019-02-23T03:47:34.490Z,3.70
2019-02-23T03:50:03.161Z,3.47
2019-02-23T03:52:31.573Z,3.33
2019-02-23T03:55:00.027Z,3.25
2019-02-23T03:57:28.416Z,3.80
2019-02-23T03:59:56.982Z,3.35
2019-02-23T04:02:25.403Z,3.35
2019-02-23T04:04:53.794Z,3.25
2019-02-23T04:07:22.220Z,3.60
2019-02-23T04:09:50.628Z,3.20
2019-02-23T04:12:19.051Z,3.70
2019-02-23T04:14:47.473Z,3.42
2019-02-23T04:17:15.969Z,4.00
2019-02-23T04:19:44.401Z,3.15
2019-02-23T04:22:12.795Z,3.50
2019-02-23T04:24:41.232Z,3.35
2019-02-23T04:27:09.655Z,2.90
2019-02-23T04:29:38.066Z,3.58
2019-02-23T04:32:06.568Z,3.17
2019-02-23T04:34:35.021Z,3.45
2019-02-23T04:37:03.386Z,3.08
2019-02-23T04:39:31.820Z,3.12
2019-02-23T04:42:00.275Z,2.62
2019-02-23T04:44:28.667Z,2.87
2019-02-23T04:46:57.097Z,3.10
2019-02-23T04:49:26.125Z,3.00
2019-02-23T04:51:54.705Z,2.92
2019-02-23T04:54:23.125Z,3.50
2019-02-23T04:56:51.555Z,3.10
2019-02-23T04:59:19.951Z,3.15
2019-02-23T05:01:48.372Z,2.83
2019-02-23T05:04:16.768Z,2.95
2019-02-23T05:06:45.182Z,3.55
2019-02-23T05:09:13.631Z,3.02
2019-02-23T05:11:42.026Z,2.85
2019-02-23T05:14:10.432Z,3.45
2019-02-23T05:16:38.869Z,2.92
2019-02-23T05:19:07.304Z,3.02
2019-02-23T05:21:35.704Z,2.95
2019-02-23T05:24:04.132Z,3.33
2019-02-23T05:26:32.537Z,3.20
2019-02-23T05:29:00.972Z,3.20
2019-02-23T05:31:30.150Z,3.10
2019-02-23T05:33:58.585Z,3.00
2019-02-23T05:36:26.983Z,2.85
2019-02-23T05:38:55.399Z,2.80
2019-02-23T05:41:23.793Z,2.70
2019-02-23T05:43:52.218Z,2.67
2019-02-23T05:46:20.624Z,3.02
2019-02-23T05:48:49.051Z,2.90
2019-02-23T05:51:18.009Z,2.95
2019-02-23T05:53:46.503Z,2.98
2019-02-23T05:56:16.287Z,2.40
2019-02-23T05:58:44.925Z,2.55
2019-02-23T06:01:13.358Z,3.00
2019-02-23T06:03:41.783Z,2.37
2019-02-23T06:06:10.208Z,2.42
2019-02-23T06:08:38.635Z,2.30
2019-02-23T06:11:07.047Z,2.35
2019-02-23T06:13:35.450Z,2.47
2019-02-23T06:16:04.456Z,2.50
2019-02-23T06:18:32.846Z,2.30
2019-02-23T06:21:01.242Z,2.40
2019-02-23T06:23:29.688Z,2.62
2019-02-23T06:25:58.092Z,2.40
2019-02-23T06:28:26.516Z,2.25
2019-02-23T06:30:54.938Z,2.00
2019-02-23T06:33:23.368Z,2.27
2019-02-23T06:35:51.758Z,2.52
2019-02-23T06:38:20.274Z,2.20
2019-02-23T06:40:48.694Z,2.50
2019-02-23T06:43:17.086Z,2.40
2019-02-23T06:45:45.520Z,2.50
2019-02-23T06:48:13.932Z,2.43
2019-02-23T06:50:42.360Z,2.47
2019-02-23T06:53:10.776Z,2.40
2019-02-23T06:55:39.192Z,1.77
2019-02-23T06:58:07.634Z,1.90
2019-02-23T07:00:36.024Z,2.00
2019-02-23T07:03:04.495Z,2.20
2019-02-23T07:05:32.923Z,2.12
2019-02-23T07:08:01.329Z,2.15
2019-02-23T07:10:29.746Z,2.12
2019-02-23T07:12:58.237Z,2.25
2019-02-23T07:15:25.668Z,2.33
2019-02-23T07:17:54.032Z,2.27
2019-02-23T07:20:22.452Z,2.30
2019-02-23T07:22:50.856Z,2.40
2019-02-23T07:25:19.275Z,2.75
2019-02-23T07:27:47.704Z,2.35
2019-02-23T07:30:16.106Z,2.22
2019-02-23T07:35:10.053Z,2.50
2019-02-23T07:37:38.512Z,2.77
2019-02-23T07:40:09.976Z,2.10
2019-02-23T07:42:38.400Z,2.20
2019-02-23T07:45:08.832Z,2.33
2019-02-23T07:47:37.345Z,2.10
2019-02-23T07:50:09.020Z,2.20
2019-02-23T07:52:37.423Z,2.08
2019-02-23T07:55:06.597Z,2.42
2019-02-23T07:57:34.992Z,2.42
2019-02-23T08:00:03.591Z,2.20
2019-02-23T08:02:32.000Z,2.33
2019-02-23T08:05:00.446Z,2.25
2019-02-23T08:07:28.864Z,2.22
2019-02-23T08:09:57.256Z,2.20
2019-02-23T08:12:25.680Z,2.27
2019-02-23T08:14:54.090Z,1.95
2019-02-23T08:17:22.523Z,2.22
2019-02-23T08:19:50.950Z,2.10
2019-02-23T08:22:19.381Z,2.08
2019-02-23T08:24:47.779Z,2.30
2019-02-23T08:27:16.227Z,2.10
2019-02-23T08:29:44.629Z,2.10
2019-02-23T08:32:13.067Z,2.22
2019-02-23T08:34:41.471Z,1.90
2019-02-23T08:37:09.913Z,2.30
2019-02-23T08:39:38.356Z,2.10
2019-02-23T08:42:06.775Z,2.00
2019-02-23T08:44:35.207Z,2.50
2019-02-23T08:47:03.605Z,6.28
2019-02-23T08:49:32.050Z,9.33
2019-02-23T08:52:00.479Z,9.63
2019-02-23T08:54:28.912Z,10.23
2019-02-23T08:56:57.328Z,9.23
2019-02-23T08:59:25.772Z,10.30
2019-02-23T09:01:54.224Z,10.10
2019-02-23T09:04:22.640Z,9.80
2019-02-23T09:06:51.055Z,9.98
2019-02-23T09:09:19.493Z,10.27
2019-02-23T09:11:47.923Z,10.10
2019-02-23T09:14:16.339Z,8.93
2019-02-23T09:16:44.740Z,9.13
2019-02-23T09:19:13.169Z,9.70
2019-02-23T09:21:41.578Z,9.27
2019-02-23T09:24:09.999Z,9.33
2019-02-23T09:26:38.416Z,9.40
2019-02-23T09:29:06.850Z,10.87
2019-02-23T09:31:35.327Z,10.30
2019-02-23T09:34:03.727Z,9.57
2019-02-23T09:36:32.186Z,10.30
2019-02-23T09:39:00.619Z,9.47
2019-02-23T09:41:29.058Z,10.20
2019-02-23T09:43:57.478Z,9.93
2019-02-23T09:46:25.903Z,10.33
2019-02-23T09:48:56.307Z,9.60
2019-02-23T09:51:24.463Z,9.13
2019-02-23T09:53:52.910Z,9.80
2019-02-23T09:56:21.314Z,9.10
2019-02-23T09:58:49.735Z,9.33
2019-02-23T10:01:18.177Z,9.17
2019-02-23T10:03:46.580Z,9.30
2019-02-23T10:06:15.029Z,9.13
2019-02-23T10:08:43.448Z,10.87
2019-02-23T10:11:11.889Z,10.30
2019-02-23T10:13:40.281Z,9.83
2019-02-23T10:16:08.706Z,9.53
2019-02-23T10:18:37.124Z,9.93
2019-02-23T10:21:05.533Z,8.67
2019-02-23T10:23:34.047Z,7.90
2019-02-23T10:26:02.374Z,9.37
2019-02-23T10:28:30.831Z,8.80
2019-02-23T10:30:59.248Z,8.03
2019-02-23T10:33:27.799Z,8.67
2019-02-23T10:35:56.209Z,8.13
2019-02-23T10:38:24.635Z,9.37
2019-02-23T10:40:53.065Z,9.70
2019-02-23T10:43:21.464Z,8.60
2019-02-23T10:45:49.895Z,10.73
2019-02-23T10:48:18.301Z,12.77
2019-02-23T10:50:46.735Z,13.17
2019-02-23T10:53:15.225Z,10.90
2019-02-23T10:55:43.674Z,9.97
2019-02-23T10:58:12.156Z,8.80
2019-02-23T11:00:40.604Z,10.03
2019-02-23T11:03:09.085Z,9.10
2019-02-23T11:05:37.589Z,9.93
2019-02-23T11:08:06.183Z,9.00
2019-02-23T11:10:34.690Z,9.70
2019-02-23T11:13:03.104Z,8.23
2019-02-23T11:15:31.593Z,10.07
2019-02-23T11:18:00.008Z,8.95
2019-02-23T11:20:28.802Z,9.73
2019-02-23T11:22:57.247Z,9.40
2019-02-23T11:25:25.845Z,8.30
2019-02-23T11:27:54.281Z,8.63
2019-02-23T11:30:22.685Z,8.87
2019-02-23T11:32:51.195Z,8.53
2019-02-23T11:35:19.601Z,7.83
2019-02-23T11:37:48.025Z,8.00
2019-02-23T11:40:16.900Z,9.30
2019-02-23T11:42:45.355Z,8.38
2019-02-23T11:45:14.130Z,8.33
2019-02-23T11:47:42.557Z,7.20
2019-02-23T11:50:12.498Z,6.80
2019-02-23T11:52:40.956Z,7.90
2019-02-23T11:55:09.620Z,7.10
2019-02-23T11:57:38.105Z,5.63
2019-02-23T12:00:09.663Z,6.10
2019-02-23T12:02:38.070Z,6.80
2019-02-23T12:05:07.132Z,6.57
2019-02-23T12:07:35.685Z,6.27
2019-02-23T12:10:05.921Z,6.17
2019-02-23T12:12:34.333Z,5.43
2019-02-23T12:15:02.733Z,5.83
2019-02-23T12:17:31.166Z,4.87
2019-02-23T12:19:59.610Z,5.00
2019-02-23T12:22:28.026Z,4.87
2019-02-23T12:24:56.435Z,4.53
2019-02-23T12:27:24.868Z,5.30
2019-02-23T12:29:53.278Z,4.53
2019-02-23T12:32:21.724Z,5.57
2019-02-23T12:34:50.137Z,6.33
2019-02-23T12:37:18.574Z,5.70
2019-02-23T12:39:46.991Z,5.20
2019-02-23T12:42:15.419Z,5.37
2019-02-23T12:44:43.847Z,4.47
2019-02-23T12:47:12.273Z,4.67
2019-02-23T12:49:40.665Z,4.23
2019-02-23T12:52:09.120Z,4.37
2019-02-23T12:54:37.601Z,7.30
2019-02-23T12:57:05.995Z,6.40
2019-02-23T12:59:34.433Z,6.40
2019-02-23T13:02:02.844Z,6.47
2019-02-23T13:04:31.273Z,5.70
2019-02-23T13:06:59.681Z,5.63
2019-02-23T13:09:30.734Z,5.53
2019-02-23T13:12:07.872Z,6.07
2019-02-23T13:14:39.358Z,6.53
2019-02-23T13:17:19.531Z,5.70
2019-02-23T13:20:24.476Z,4.83
2019-02-23T13:23:01.424Z,14.87
2019-02-23T13:25:39.012Z,24.30
2019-02-23T13:28:30.961Z,13.90
2019-02-23T13:31:22.062Z,14.10
2019-02-23T13:34:08.758Z,10.57
2019-02-23T13:37:01.731Z,11.20
2019-02-23T13:39:36.014Z,9.23
2019-02-23T13:42:16.420Z,18.33
2019-02-23T13:45:03.159Z,11.43
2019-02-23T13:47:55.814Z,14.50
2019-02-23T13:59:18.926Z,9.20
2019-02-23T14:02:15.931Z,7.17
2019-02-23T14:04:50.367Z,7.37
2019-02-23T14:07:30.919Z,7.87
2019-02-23T14:10:17.113Z,7.37
2019-02-23T14:12:57.503Z,8.17
2019-02-23T14:15:31.464Z,5.87
2019-02-23T14:18:08.916Z,5.70
2019-02-23T14:21:04.666Z,4.80
2019-02-23T14:24:01.951Z,5.27
2019-02-23T14:26:51.593Z,7.27
2019-02-23T14:29:38.003Z,6.23
2019-02-23T14:32:39.385Z,5.17
2019-02-23T14:35:27.337Z,5.30
2019-02-23T14:38:22.987Z,5.30
2019-02-23T14:41:08.749Z,4.13
2019-02-23T14:43:45.748Z,3.67
2019-02-23T14:46:35.390Z,4.07
2019-02-23T14:49:09.795Z,3.63
2019-02-23T14:52:07.885Z,3.30
2019-02-23T14:55:01.166Z,3.50
2019-02-23T14:57:47.790Z,3.98
2019-02-23T15:00:44.936Z,4.57
2019-02-23T15:03:35.897Z,4.13
2019-02-23T15:06:13.399Z,3.83
2019-02-23T15:08:53.640Z,4.40
2019-02-23T15:11:30.634Z,4.77
2019-02-23T15:14:02.084Z,6.23
2019-02-23T15:16:42.492Z,5.70
2019-02-23T15:19:47.472Z,5.00
2019-02-23T15:22:21.593Z,5.47
2019-02-23T15:25:13.485Z,5.60
2019-02-23T15:27:50.337Z,6.97
2019-02-23T15:30:24.389Z,6.20
2019-02-23T15:33:10.620Z,5.43
2019-02-23T15:35:47.886Z,5.62
2019-02-23T15:38:31.489Z,4.20
2019-02-23T15:41:13.274Z,3.97
2019-02-23T15:43:50.954Z,5.43
2019-02-23T15:46:43.416Z,4.10
2019-02-23T15:49:17.579Z,4.93
2019-02-23T15:51:46.002Z,4.93
2019-02-23T15:54:14.624Z,4.70
2019-02-23T15:56:43.170Z,4.20
2019-02-23T15:59:11.607Z,4.53
2019-02-23T16:01:40.040Z,3.77
2019-02-23T16:04:08.517Z,4.03
2019-02-23T16:06:36.905Z,4.20
2019-02-23T16:09:05.865Z,3.83
2019-02-23T16:11:34.292Z,3.70
2019-02-23T16:14:02.780Z,3.27
2019-02-23T16:16:31.275Z,4.23
2019-02-23T16:18:59.668Z,4.30
2019-02-23T16:21:28.058Z,4.40
2019-02-23T16:23:56.481Z,4.40
2019-02-23T16:26:24.935Z,4.67
2019-02-23T16:28:55.777Z,4.33
2019-02-23T16:31:23.462Z,6.43
2019-02-23T16:33:51.892Z,5.97
2019-02-23T16:36:20.294Z,8.97
2019-02-23T16:38:48.717Z,6.07
2019-02-23T16:41:17.240Z,6.60
2019-02-23T16:43:45.670Z,6.62
2019-02-23T16:46:14.071Z,6.27
2019-02-23T16:48:42.563Z,6.43
2019-02-23T16:51:10.979Z,5.57
2019-02-23T16:53:39.426Z,6.63
2019-02-23T16:56:07.862Z,6.10
2019-02-23T16:58:36.275Z,6.37
2019-02-23T17:01:04.739Z,5.83
2019-02-23T17:03:33.130Z,6.67
2019-02-23T17:06:01.532Z,4.93
2019-02-23T17:08:30.076Z,6.40
2019-02-23T17:10:58.485Z,5.73
2019-02-23T17:13:26.933Z,5.40
2019-02-23T17:15:55.402Z,5.62
2019-02-23T17:18:23.809Z,6.20
2019-02-23T17:20:52.245Z,7.10
2019-02-23T17:23:20.659Z,5.10
2019-02-23T17:25:49.110Z,5.73
2019-02-23T17:28:17.569Z,5.87
2019-02-23T17:30:46.402Z,5.50
2019-02-23T17:33:14.852Z,7.03
2019-02-23T17:35:43.256Z,10.90
2019-02-23T17:40:32.965Z,8.90
2019-02-23T17:43:01.382Z,7.67
2019-02-23T17:45:29.790Z,6.10
2019-02-23T17:47:58.231Z,5.30
2019-02-23T17:50:26.731Z,5.93
2019-02-23T17:52:55.124Z,6.00
2019-02-23T17:55:23.550Z,5.77
2019-02-23T17:57:51.991Z,5.43
2019-02-23T18:00:22.028Z,5.67
2019-02-23T18:02:50.439Z,5.50
2019-02-23T18:05:18.862Z,5.80
2019-02-23T18:07:47.293Z,5.80
2019-02-23T18:10:15.728Z,5.87
2019-02-23T18:12:44.149Z,6.00
2019-02-23T18:15:12.768Z,5.97
2019-02-23T18:17:41.215Z,6.30
2019-02-23T18:20:12.282Z,6.30
2019-02-23T18:22:40.719Z,6.30
2019-02-23T18:25:09.671Z,6.33
2019-02-23T18:27:38.122Z,6.83
2019-02-23T18:30:11.329Z,25.47
2019-02-23T18:32:39.932Z,18.00
2019-02-23T18:35:09.215Z,19.70
2019-02-23T18:37:37.682Z,23.83
2019-02-23T18:40:08.177Z,18.90
2019-02-23T18:42:36.595Z,12.60
2019-02-23T18:45:07.243Z,10.80
2019-02-23T18:47:35.676Z,8.93
2019-02-23T18:50:05.253Z,13.03
2019-02-23T18:52:33.722Z,11.53
2019-02-23T18:55:03.639Z,8.90
2019-02-23T18:57:32.118Z,15.07
2019-02-23T19:00:00.564Z,12.87
2019-02-23T19:02:28.986Z,10.40
2019-02-23T19:04:57.483Z,8.63
2019-02-23T19:07:25.953Z,17.37
2019-02-23T19:09:54.386Z,20.00
2019-02-23T19:12:22.834Z,50.97
2019-02-23T19:14:51.256Z,49.23
2019-02-23T19:17:19.777Z,138.97
2019-02-23T19:19:48.217Z,36.83
2019-02-23T19:22:16.620Z,29.47
2019-02-23T19:24:45.060Z,21.50
2019-02-23T19:27:13.478Z,23.33
2019-02-23T19:29:41.929Z,14.07
2019-02-23T19:32:10.346Z,16.07
2019-02-23T19:34:38.784Z,12.93
2019-02-23T19:37:07.242Z,9.93
2019-02-23T19:39:35.655Z,11.95
2019-02-23T19:42:04.173Z,10.73
2019-02-23T19:44:32.592Z,10.63
2019-02-23T19:47:01.006Z,15.50
2019-02-23T19:49:29.426Z,29.40
2019-02-23T19:51:57.842Z,31.53
2019-02-23T19:54:26.277Z,205.63
2019-02-23T19:56:54.685Z,92.17
2019-02-23T19:59:23.136Z,51.13
2019-02-23T20:01:51.577Z,35.97
2019-02-23T20:04:19.988Z,25.07
2019-02-23T20:06:48.514Z,36.67
2019-02-23T20:09:16.950Z,23.57
2019-02-23T20:11:45.362Z,16.23
2019-02-23T20:14:13.791Z,15.40
2019-02-23T20:16:42.238Z,28.42
2019-02-23T20:19:10.632Z,43.33
2019-02-23T20:21:39.076Z,55.63
2019-02-23T20:24:07.483Z,69.63
2019-02-23T20:26:35.910Z,75.73
2019-02-23T20:29:04.332Z,30.80
2019-02-23T20:31:32.758Z,22.30
2019-02-23T20:34:01.200Z,15.68
2019-02-23T20:36:29.604Z,13.68
2019-02-23T20:38:58.061Z,11.97
2019-02-23T20:41:26.464Z,12.67
2019-02-23T20:43:54.973Z,13.17
2019-02-23T20:46:23.389Z,11.37
2019-02-23T20:48:51.909Z,11.10
2019-02-23T20:51:20.379Z,11.83
2019-02-23T20:53:48.774Z,13.30
2019-02-23T20:56:17.193Z,21.27
2019-02-23T20:58:45.625Z,17.03
2019-02-23T21:01:14.065Z,18.30
2019-02-23T21:03:42.480Z,23.67
2019-02-23T21:06:10.930Z,30.80
2019-02-23T21:08:39.411Z,26.37
2019-02-23T21:11:07.829Z,21.13
2019-02-23T21:13:36.264Z,19.40
2019-02-23T21:16:04.704Z,26.90
2019-02-23T21:18:33.100Z,18.60
2019-02-23T21:21:01.534Z,13.17
2019-02-23T21:23:29.978Z,10.05
2019-02-23T21:25:58.384Z,8.67
2019-02-23T21:28:26.899Z,4.77
2019-02-23T21:30:55.302Z,3.80
2019-02-23T21:33:23.790Z,3.37
2019-02-23T21:35:52.457Z,3.60
2019-02-23T21:38:20.907Z,3.50
2019-02-23T21:40:49.306Z,3.30
2019-02-23T21:43:17.728Z,2.93
2019-02-23T21:45:46.151Z,4.23
2019-02-23T21:48:14.556Z,2.80
2019-02-23T21:50:44.227Z,2.90
2019-02-23T21:53:12.657Z,2.57
2019-02-23T21:55:41.093Z,2.90
2019-02-23T21:58:09.478Z,3.43
2019-02-23T22:00:37.925Z,2.87
2019-02-23T22:03:07.130Z,2.80
2019-02-23T22:05:35.629Z,2.60
2019-02-23T22:08:04.032Z,2.33
2019-02-23T22:10:32.463Z,2.20
2019-02-23T22:13:00.865Z,2.77
2019-02-23T22:15:29.299Z,2.57
2019-02-23T22:17:57.690Z,2.03
2019-02-23T22:20:26.132Z,2.50
2019-02-23T22:22:54.775Z,3.03
2019-02-23T22:25:23.308Z,2.20
2019-02-23T22:27:51.714Z,2.20
2019-02-23T22:30:20.141Z,2.00
2019-02-23T22:32:48.530Z,2.00
2019-02-23T22:35:16.933Z,2.53
2019-02-23T22:37:45.357Z,2.90
2019-02-23T22:40:13.759Z,2.23
2019-02-23T22:42:42.199Z,1.60
2019-02-23T22:45:10.610Z,1.80
2019-02-23T22:47:39.050Z,2.10
2019-02-23T22:50:08.782Z,2.13
2019-02-23T22:52:37.208Z,2.00
2019-02-23T22:55:06.537Z,2.03
2019-02-23T22:57:40.589Z,3.13
2019-02-23T23:00:07.781Z,11.40
2019-02-23T23:02:36.217Z,3.63
2019-02-23T23:05:05.213Z,5.37
2019-02-23T23:07:33.623Z,3.50
2019-02-23T23:10:02.067Z,3.30
2019-02-23T23:12:30.471Z,3.33
2019-02-23T23:14:58.893Z,3.80
2019-02-23T23:17:27.309Z,4.80
2019-02-23T23:19:57.065Z,4.60
2019-02-23T23:22:25.622Z,4.70
2019-02-23T23:24:54.139Z,4.83
2019-02-23T23:27:22.553Z,4.53
2019-02-23T23:29:50.988Z,5.17
2019-02-23T23:32:19.393Z,4.87
2019-02-23T23:34:47.835Z,4.60
2019-02-23T23:37:16.254Z,5.03
2019-02-23T23:39:44.678Z,4.37
2019-02-23T23:42:13.064Z,4.50
2019-02-23T23:44:41.496Z,4.37
2019-02-23T23:47:09.918Z,4.40
2019-02-23T23:49:38.362Z,4.10
2019-02-23T23:52:06.792Z,3.80
2019-02-23T23:54:35.208Z,3.37
2019-02-23T23:57:03.733Z,3.77
2019-02-23T23:59:32.263Z,4.77
